Terminal Aerodrome Forecast
Issued by NWS Paducah, KY

Home | Current Version | Previous Version | Graphics & Text | Print | Product List | Glossary On
Versions: 1 2 3 4 5 6 7 8 9 10 11 12 13 14 15 16
000
FTUS43 KPAH 191600 AAA
TAFEVV
TAF AMD
KEVV 191610Z 1916/2012 VRB03KT P6SM SCT030
      TEMPO 1916/1919 BKN028
     FM192300 17003KT P6SM BKN250
     FM200800 21003KT P6SM BKN120=

USA.gov is the U.S. government's official web portal to all federal, state and local government web resources and services.